Time;durP1;ratioP1;P1;durP2;ratioP2;P2;SDS_P1;SDS_P2;PMS_P1;PMS_P2;Temp;Humidity;BMP_temperature;BMP_pressure;BME280_temperature;BME280_humidity;BME280_pressure;Samples;Min_cycle;Max_cycle;Signal;HPM_P1;HPM_P2
2021/12/13 00:01:27;;;;;;;57.13;30.33;;;;;;;7.94;100.00;102365.56;5085678;28;20027;-80
2021/12/13 00:04:06;;;;;;;55.97;28.77;;;;;;;7.92;100.00;102357.63;5085242;28;20051;-79
2021/12/13 00:06:37;;;;;;;56.75;29.10;;;;;;;7.87;100.00;102345.38;5088531;28;20358;-79
2021/12/13 00:09:15;;;;;;;57.45;30.20;;;;;;;7.89;100.00;102355.03;5087860;28;20048;-80
2021/12/13 00:11:44;;;;;;;51.70;28.92;;;;;;;7.89;100.00;102360.31;5085701;28;20050;-80
2021/12/13 00:14:12;;;;;;;57.17;30.90;;;;;;;7.90;100.00;102353.25;5087678;28;20472;-79
2021/12/13 00:16:44;;;;;;;55.95;29.15;;;;;;;7.86;100.00;102351.53;5087933;28;20031;-80
2021/12/13 00:19:17;;;;;;;58.20;28.50;;;;;;;7.88;100.00;102355.94;5083845;28;20037;-79
2021/12/13 00:21:47;;;;;;;47.55;28.40;;;;;;;7.85;100.00;102357.75;5066002;28;20388;-79
2021/12/13 00:24:28;;;;;;;53.75;28.17;;;;;;;7.84;100.00;102367.47;5068069;28;20082;-80
2021/12/13 00:27:05;;;;;;;60.53;28.38;;;;;;;7.83;100.00;102368.38;5079987;28;20115;-80
2021/12/13 00:29:40;;;;;;;49.42;27.63;;;;;;;7.84;100.00;102363.97;5078251;28;20020;-79
2021/12/13 00:32:16;;;;;;;50.75;28.80;;;;;;;7.82;100.00;102371.06;5071868;28;20036;-80
2021/12/13 00:34:43;;;;;;;54.85;26.67;;;;;;;7.80;100.00;102360.47;5068314;28;20039;-80
2021/12/13 00:37:28;;;;;;;55.28;27.48;;;;;;;7.81;100.00;102367.50;5076437;28;20032;-80
2021/12/13 00:39:59;;;;;;;50.63;28.73;;;;;;;7.81;100.00;102370.16;5068379;28;20513;-80
2021/12/13 00:42:35;;;;;;;57.47;28.27;;;;;;;7.78;100.00;102362.28;5068412;28;20028;-80
2021/12/13 00:45:07;;;;;;;51.47;27.95;;;;;;;7.77;100.00;102371.09;5065921;28;20402;-80
2021/12/13 00:47:35;;;;;;;51.67;27.73;;;;;;;7.76;100.00;102369.38;5058302;28;20538;-80
2021/12/13 00:50:04;;;;;;;51.78;27.65;;;;;;;7.70;100.00;102373.00;5047824;28;20021;-80
2021/12/13 00:52:35;;;;;;;50.70;27.90;;;;;;;7.70;100.00;102372.13;5068493;28;20098;-80
2021/12/13 00:55:00;;;;;;;51.83;27.73;;;;;;;7.68;100.00;102372.13;5067708;28;20429;-80
2021/12/13 00:57:28;;;;;;;51.53;29.00;;;;;;;7.71;100.00;102376.50;5078701;28;20078;-80
2021/12/13 01:00:03;;;;;;;52.58;28.30;;;;;;;7.66;100.00;102371.28;5083624;28;20047;-80
2021/12/13 01:02:51;;;;;;;53.55;27.73;;;;;;;7.68;100.00;102373.91;5078216;28;20048;-80
2021/12/13 01:05:41;;;;;;;54.40;28.88;;;;;;;7.68;100.00;102373.91;5053861;28;20054;-80
2021/12/13 01:08:29;;;;;;;53.70;28.45;;;;;;;7.68;100.00;102374.78;5064968;28;20478;-80
2021/12/13 01:10:55;;;;;;;52.25;27.15;;;;;;;7.66;100.00;102381.88;5068476;28;20040;-80
2021/12/13 01:13:48;;;;;;;56.50;28.10;;;;;;;7.66;100.00;102376.59;5071290;28;20028;-80
2021/12/13 01:21:56;;;;;;;55.15;29.10;;;;;;;7.63;100.00;102387.22;5074435;28;20036;-79
2021/12/13 01:25:02;;;;;;;52.90;28.35;;;;;;;7.63;100.00;102386.34;5062888;28;20084;-80
2021/12/13 01:27:34;;;;;;;53.65;28.52;;;;;;;7.63;100.00;102386.34;5066057;28;20037;-80
2021/12/13 01:30:00;;;;;;;50.58;27.80;;;;;;;7.62;100.00;102393.44;5072162;28;20446;-79
2021/12/13 01:32:40;;;;;;;55.40;29.25;;;;;;;7.61;100.00;102396.97;5083018;28;20114;-80
2021/12/13 01:35:11;;;;;;;56.72;29.55;;;;;;;7.56;100.00;102387.31;5087140;28;20077;-80
2021/12/13 01:37:36;;;;;;;56.47;29.50;;;;;;;7.60;100.00;102402.28;5071744;28;20025;-80
2021/12/13 01:40:09;;;;;;;56.65;29.30;;;;;;;7.59;100.00;102400.53;5074075;28;20615;-80
2021/12/13 01:42:36;;;;;;;60.15;30.33;;;;;;;7.53;100.00;102396.22;5064538;28;20033;-79
2021/12/13 01:45:09;;;;;;;58.10;30.90;;;;;;;7.56;100.00;102401.44;5077488;28;20027;-80
2021/12/13 01:47:37;;;;;;;;;;;;;;;7.60;100.00;102396.97;5075429;28;20107;-80
2021/12/13 01:50:10;;;;;;;58.10;31.13;;;;;;;7.57;100.00;102402.34;5071405;28;21280;-80
2021/12/13 01:52:38;;;;;;;62.25;30.77;;;;;;;7.53;100.00;102409.47;5074080;28;20028;-80
2021/12/13 01:55:22;;;;;;;60.05;30.95;;;;;;;7.54;100.00;102410.31;5078105;28;20017;-79
2021/12/13 01:57:54;;;;;;;59.50;31.30;;;;;;;7.54;100.00;102407.69;5081877;28;20493;-80
2021/12/13 02:01:08;;;;;;;64.88;32.03;;;;;;;7.52;100.00;102410.31;5068006;28;21036;-80
2021/12/13 02:03:20;;;;;;;63.03;32.72;;;;;;;7.52;100.00;102412.09;5050832;28;20071;-80
2021/12/13 02:05:48;;;;;;;61.58;32.90;;;;;;;7.46;100.00;102405.13;5055837;28;20063;-80
2021/12/13 02:08:21;;;;;;;64.53;32.03;;;;;;;7.48;100.00;102411.25;5073372;28;20363;-80
2021/12/13 02:10:50;;;;;;;66.72;34.45;;;;;;;7.46;100.00;102405.13;5073531;28;20058;-80
2021/12/13 02:13:20;;;;;;;65.65;32.38;;;;;;;7.50;100.00;102406.84;5071448;28;20070;-80
2021/12/13 02:18:36;;;;;;;67.13;33.30;;;;;;;7.47;100.00;102406.88;5052192;28;20091;-80
2021/12/13 02:21:07;;;;;;;64.78;32.92;;;;;;;7.43;100.00;102399.84;5074077;28;20473;-80
2021/12/13 02:23:37;;;;;;;62.10;31.83;;;;;;;7.44;100.00;102398.94;5070797;28;20020;-80
2021/12/13 02:26:05;;;;;;;64.05;33.17;;;;;;;7.44;100.00;102402.50;5069751;28;20024;-80
2021/12/13 02:28:33;;;;;;;64.53;31.65;;;;;;;7.44;100.00;102402.50;5084173;28;20024;-80
2021/12/13 02:31:09;;;;;;;64.45;31.88;;;;;;;7.44;100.00;102405.16;5078661;28;20561;-80
2021/12/13 02:33:43;;;;;;;67.18;33.05;;;;;;;7.44;100.00;102407.81;5071607;28;20029;-80
2021/12/13 02:36:10;;;;;;;;;;;;;;;7.45;100.00;102408.69;5072006;28;20037;-80
2021/12/13 02:38:38;;;;;;;69.90;32.92;;;;;;;7.42;100.00;102401.63;5070890;28;19958;-80
2021/12/13 02:41:06;;;;;;;63.83;32.28;;;;;;;7.34;100.00;102382.31;5068596;28;20051;-80
2021/12/13 02:43:37;;;;;;;67.70;32.53;;;;;;;7.40;100.00;102394.63;5089192;28;20024;-80
2021/12/13 02:46:02;;;;;;;66.60;32.38;;;;;;;7.40;100.00;102395.50;5072866;28;20416;-80
2021/12/13 02:48:33;;;;;;;63.92;31.15;;;;;;;7.41;100.00;102402.53;5069950;28;20033;-80
2021/12/13 02:51:19;;;;;;;63.83;31.08;;;;;;;7.41;100.00;102407.84;5070789;28;20030;-79
2021/12/13 02:53:51;;;;;;;65.57;30.52;;;;;;;7.35;100.00;102399.06;5072746;28;20031;-80
2021/12/13 02:56:24;;;;;;;62.85;30.52;;;;;;;7.31;100.00;102386.75;5069066;28;20359;-80
2021/12/13 02:58:51;;;;;;;61.85;30.42;;;;;;;7.35;100.00;102402.59;5087957;28;20028;-79
2021/12/13 03:01:23;;;;;;;62.30;29.65;;;;;;;7.35;100.00;102404.38;5076642;28;20377;-80
2021/12/13 03:03:55;;;;;;;64.07;30.55;;;;;;;7.37;100.00;102406.13;5072288;28;20100;-80
2021/12/13 03:06:24;;;;;;;64.05;31.25;;;;;;;7.37;100.00;102410.53;5071387;28;20024;-79
2021/12/13 03:08:59;;;;;;;60.20;28.25;;;;;;;7.30;100.00;102404.44;5072064;28;20103;-80
2021/12/13 03:11:32;;;;;;;62.85;30.25;;;;;;;7.31;100.00;102410.59;5070518;28;20119;-80
2021/12/13 03:14:00;;;;;;;58.63;30.27;;;;;;;7.31;100.00;102411.47;5063880;28;20033;-80
2021/12/13 03:17:03;;;;;;;63.25;29.67;;;;;;;7.34;100.00;102410.56;5081621;28;20053;-80
2021/12/13 03:19:40;;;;;;;58.67;28.50;;;;;;;7.33;100.00;102408.81;5073654;28;20396;-80
2021/12/13 03:22:39;;;;;;;58.20;28.15;;;;;;;7.34;100.00;102406.16;5084538;28;20060;-80
2021/12/13 03:25:21;;;;;;;62.17;29.35;;;;;;;7.32;100.00;102402.66;5068443;28;20078;-80
2021/12/13 03:28:22;;;;;;;56.88;28.20;;;;;;;7.34;100.00;102402.63;5073745;28;20119;-80
2021/12/13 03:30:56;;;;;;;55.10;27.98;;;;;;;7.32;100.00;102410.59;5087957;28;20071;-80
2021/12/13 03:33:30;;;;;;;60.50;30.00;;;;;;;7.30;100.00;102417.69;5079996;28;20068;-80
2021/12/13 03:35:59;;;;;;;62.10;28.02;;;;;;;7.28;100.00;102406.25;5069070;28;20304;-80
2021/12/13 03:38:34;;;;;;;59.28;28.98;;;;;;;7.28;100.00;102410.66;5068667;28;20033;-80
2021/12/13 03:41:04;;;;;;;57.17;27.85;;;;;;;7.30;100.00;102420.31;5078503;28;20043;-80
2021/12/13 03:43:35;;;;;;;54.58;27.92;;;;;;;7.29;100.00;102421.22;5084736;28;20031;-80
2021/12/13 03:46:04;;;;;;;56.40;27.45;;;;;;;7.29;100.00;102418.59;5088525;28;20054;-80
2021/12/13 03:48:31;;;;;;;52.05;26.40;;;;;;;7.28;100.00;102414.19;5089306;28;20412;-80
2021/12/13 03:51:02;;;;;;;54.92;27.55;;;;;;;7.25;100.00;102414.22;5087236;28;20024;-80
2021/12/13 03:53:31;;;;;;;56.63;28.05;;;;;;;7.27;100.00;102420.34;5088292;28;20065;-80
2021/12/13 03:56:03;;;;;;;56.40;26.98;;;;;;;7.24;100.00;102421.28;5084855;28;20392;-80
2021/12/13 03:58:33;;;;;;;54.53;26.67;;;;;;;7.27;100.00;102420.34;5088517;28;20036;-80
2021/12/13 04:01:17;;;;;;;52.00;26.38;;;;;;;7.24;100.00;102423.06;5085993;28;20023;-80
2021/12/13 04:03:44;;;;;;;49.42;25.05;;;;;;;7.25;100.00;102422.16;5088738;28;20111;-80
2021/12/13 04:06:15;;;;;;;56.28;26.80;;;;;;;7.23;100.00;102408.03;5088251;28;20437;-80
2021/12/13 04:08:42;;;;;;;51.50;26.65;;;;;;;7.25;100.00;102416.88;5087054;28;20119;-80
2021/12/13 04:11:10;;;;;;;55.15;26.45;;;;;;;7.22;100.00;102417.75;5087348;28;20396;-80
2021/12/13 04:13:43;;;;;;;57.00;26.65;;;;;;;7.24;100.00;102413.34;5088945;28;20044;-79
2021/12/13 04:16:29;;;;;;;47.72;25.17;;;;;;;7.24;100.00;102407.16;5086461;28;20028;-80
2021/12/13 04:21:35;;;;;;;48.15;25.20;;;;;;;7.18;100.00;102412.53;5087675;28;20075;-80
2021/12/13 04:24:04;;;;;;;52.38;25.70;;;;;;;7.23;100.00;102423.94;5087837;28;20307;-80
2021/12/13 04:26:36;;;;;;;51.90;26.40;;;;;;;7.20;100.00;102429.28;5088318;28;20027;-80
2021/12/13 04:29:02;;;;;;;46.78;24.15;;;;;;;7.22;100.00;102430.13;5086365;28;20417;-79
2021/12/13 04:31:35;;;;;;;47.15;25.27;;;;;;;7.22;100.00;102432.78;5087319;28;20024;-80
2021/12/13 04:34:03;;;;;;;49.20;24.02;;;;;;;7.19;100.00;102423.13;5068306;28;20033;-80
2021/12/13 04:36:32;;;;;;;45.17;24.08;;;;;;;7.19;100.00;102417.81;5081420;28;20028;-80
2021/12/13 04:39:05;;;;;;;46.40;24.35;;;;;;;7.21;100.00;102425.75;5086585;28;20042;-79
2021/12/13 04:41:37;;;;;;;48.35;24.20;;;;;;;7.20;100.00;102426.63;5087905;28;20028;-80
2021/12/13 04:44:11;;;;;;;45.13;23.90;;;;;;;7.19;100.00;102423.13;5077573;28;20020;-80
2021/12/13 04:46:38;;;;;;;;;;;;;;;7.21;100.00;102426.63;5073201;28;20037;-80
2021/12/13 04:49:10;;;;;;;43.38;23.00;;;;;;;7.16;100.00;102417.84;5083953;28;20212;-80
2021/12/13 04:52:00;;;;;;;45.20;23.67;;;;;;;7.19;100.00;102428.41;5087831;28;20195;-80
2021/12/13 04:54:31;;;;;;;48.72;23.15;;;;;;;7.17;100.00;102424.91;5087146;28;20028;-80
2021/12/13 04:56:58;;;;;;;44.22;22.55;;;;;;;7.16;100.00;102425.78;5087706;28;20047;-80
2021/12/13 04:59:25;;;;;;;45.25;22.88;;;;;;;7.17;100.00;102429.31;5085969;28;20052;-80
2021/12/13 05:01:55;;;;;;;46.75;24.08;;;;;;;7.16;100.00;102420.50;5087994;28;20024;-80
2021/12/13 05:04:22;;;;;;;46.33;22.85;;;;;;;7.14;100.00;102416.09;5084416;28;20457;-80
2021/12/13 05:06:50;;;;;;;41.63;22.75;;;;;;;7.14;100.00;102418.75;5087351;28;20361;-80
2021/12/13 05:09:18;;;;;;;48.80;23.48;;;;;;;7.16;100.00;102424.91;5086221;28;20052;-80
2021/12/13 05:12:09;;;;;;;42.38;22.58;;;;;;;7.14;100.00;102426.69;5088151;28;20031;-80
2021/12/13 05:15:05;;;;;;;41.35;22.20;;;;;;;7.14;100.00;102418.75;5080843;28;20036;-80
2021/12/13 05:17:36;;;;;;;42.00;22.23;;;;;;;7.15;100.00;102418.75;5086805;28;20127;-80
2021/12/13 05:20:24;;;;;;;43.28;22.13;;;;;;;7.06;100.00;102410.00;5084960;28;20047;-80
2021/12/13 05:23:12;;;;;;;46.90;21.50;;;;;;;7.17;100.00;102431.97;5086940;28;20028;-80
2021/12/13 05:25:45;;;;;;;41.45;21.63;;;;;;;7.14;100.00;102435.50;5087478;28;20106;-80
2021/12/13 05:28:36;;;;;;;41.55;22.08;;;;;;;7.16;100.00;102427.56;5085491;28;20032;-80
2021/12/13 05:31:09;;;;;;;43.63;22.42;;;;;;;7.08;100.00;102424.13;5076068;28;20044;-80
2021/12/13 05:33:38;;;;;;;39.85;21.88;;;;;;;7.12;100.00;102431.16;5084650;28;20114;-80
2021/12/13 05:36:09;;;;;;;38.15;21.10;;;;;;;7.14;100.00;102432.00;5086901;28;20165;-80
2021/12/13 05:38:41;;;;;;;40.88;21.73;;;;;;;7.11;100.00;102427.63;5084634;28;20031;-80
2021/12/13 05:41:13;;;;;;;44.53;21.02;;;;;;;7.11;100.00;102435.56;5086772;28;20290;-80
2021/12/13 05:43:52;;;;;;;39.80;22.08;;;;;;;7.12;100.00;102429.38;5081569;28;20020;-80
2021/12/13 05:46:25;;;;;;;40.58;22.08;;;;;;;7.13;100.00;102438.19;5079232;28;20123;-80
2021/12/13 05:48:54;;;;;;;42.45;22.00;;;;;;;7.13;100.00;102443.47;5085814;28;20024;-80
2021/12/13 05:51:31;;;;;;;39.53;21.20;;;;;;;7.12;100.00;102436.44;5087210;28;20354;-80
2021/12/13 05:53:59;;;;;;;40.67;21.65;;;;;;;7.12;100.00;102441.75;5086970;28;20034;-80
2021/12/13 05:56:38;;;;;;;36.65;21.48;;;;;;;7.11;100.00;102434.69;5085570;28;20070;-80
2021/12/13 05:59:11;;;;;;;37.38;20.50;;;;;;;7.11;100.00;102434.69;5088335;28;20040;-80
2021/12/13 06:01:54;;;;;;;35.05;20.65;;;;;;;7.08;100.00;102432.06;5089465;28;20028;-80
2021/12/13 06:04:34;;;;;;;35.45;18.92;;;;;;;7.09;100.00;102437.34;5090646;28;20024;-80
2021/12/13 06:07:00;;;;;;;37.78;20.50;;;;;;;7.10;100.00;102443.50;5090698;28;20418;-80
2021/12/13 06:09:46;;;;;;;40.28;20.73;;;;;;;7.09;100.00;102442.63;5088050;28;20028;-80
2021/12/13 06:12:31;;;;;;;33.90;19.52;;;;;;;7.05;100.00;102432.97;5090260;28;20028;-80
2021/12/13 06:15:14;;;;;;;32.58;18.42;;;;;;;7.06;100.00;102444.44;5091083;28;20020;-80
2021/12/13 06:17:43;;;;;;;35.43;19.77;;;;;;;7.07;100.00;102449.72;5087232;28;20032;-80
2021/12/13 06:20:13;;;;;;;31.48;18.45;;;;;;;7.07;100.00;102441.78;5088624;28;20079;-80
2021/12/13 06:22:39;;;;;;;32.03;17.73;;;;;;;7.05;100.00;102443.56;5067403;28;20016;-80
2021/12/13 06:25:09;;;;;;;36.58;18.55;;;;;;;7.06;100.00;102450.59;5070304;28;20032;-80
2021/12/13 06:27:48;;;;;;;34.10;19.00;;;;;;;7.07;100.00;102443.56;5069979;28;20426;-80
2021/12/13 06:30:16;;;;;;;29.50;17.77;;;;;;;7.06;100.00;102445.31;5062098;28;20028;-80
2021/12/13 06:32:59;;;;;;;30.58;17.65;;;;;;;7.04;100.00;102443.59;5084157;28;20032;-80
2021/12/13 06:35:30;;;;;;;30.20;16.95;;;;;;;7.05;100.00;102446.22;5053274;28;20044;-80
2021/12/13 06:38:20;;;;;;;32.72;17.95;;;;;;;7.05;100.00;102455.94;5063885;28;20025;-80
2021/12/13 06:41:13;;;;;;;30.67;17.27;;;;;;;7.06;100.00;102458.53;5069954;28;20097;-80
2021/12/13 06:43:55;;;;;;;31.80;17.15;;;;;;;7.06;100.00;102457.66;5080563;28;20035;-80
2021/12/13 06:46:23;;;;;;;29.92;17.42;;;;;;;7.05;100.00;102456.81;5073119;28;20036;-80
2021/12/13 06:48:59;;;;;;;29.17;16.95;;;;;;;7.03;100.00;102460.38;5069958;28;20035;-80
2021/12/13 06:51:49;;;;;;;27.70;15.88;;;;;;;7.05;100.00;102459.44;5078125;28;20368;-80
2021/12/13 06:54:41;;;;;;;29.77;16.38;;;;;;;7.02;100.00;102464.75;5064057;28;20201;-80
2021/12/13 06:57:14;;;;;;;26.90;16.58;;;;;;;7.04;100.00;102480.66;5049630;28;20520;-80
2021/12/13 07:00:01;;;;;;;28.40;16.42;;;;;;;7.06;100.00;102476.22;5064454;28;20024;-79
2021/12/13 07:02:38;;;;;;;31.70;16.05;;;;;;;7.05;100.00;102477.09;5080269;28;20408;-80
2021/12/13 07:05:08;;;;;;;30.42;16.45;;;;;;;7.04;100.00;102470.06;5062625;28;20377;-81
2021/12/13 07:07:48;;;;;;;28.38;15.82;;;;;;;7.04;100.00;102472.72;5070359;28;20081;-79
2021/12/13 07:10:19;;;;;;;29.35;15.15;;;;;;;7.04;100.00;102470.06;5068123;28;20073;-80
2021/12/13 07:12:52;;;;;;;26.02;15.50;;;;;;;7.03;100.00;102463.91;5068128;28;20029;-80
2021/12/13 07:15:28;;;;;;;23.55;14.68;;;;;;;7.05;100.00;102477.09;5073435;28;20032;-80
2021/12/13 07:18:21;;;;;;;26.83;14.73;;;;;;;7.06;100.00;102479.72;5060924;28;20074;-80
2021/12/13 07:20:53;;;;;;;25.83;15.13;;;;;;;6.99;100.00;102473.63;5085340;28;20081;-80
2021/12/13 07:23:18;;;;;;;29.08;15.65;;;;;;;7.05;100.00;102485.03;5079296;28;20032;-80
2021/12/13 07:25:45;;;;;;;26.00;14.25;;;;;;;7.06;100.00;102484.16;5073615;28;20086;-80
2021/12/13 07:28:11;;;;;;;23.33;15.25;;;;;;;7.02;100.00;102485.06;5087149;28;20024;-80
2021/12/13 07:30:39;;;;;;;24.15;13.93;;;;;;;7.05;100.00;102487.69;5084376;28;20028;-80
2021/12/13 07:33:07;;;;;;;24.73;15.00;;;;;;;7.02;100.00;102482.44;5086147;28;20035;-80
2021/12/13 07:35:45;;;;;;;26.80;14.60;;;;;;;7.02;100.00;102480.66;5085230;28;20031;-80
2021/12/13 07:38:21;;;;;;;25.08;14.30;;;;;;;7.05;100.00;102490.34;5082633;28;20059;-79
2021/12/13 07:40:53;;;;;;;25.10;14.23;;;;;;;7.06;100.00;102500.03;5081083;28;20477;-79
2021/12/13 07:43:38;;;;;;;25.02;14.80;;;;;;;7.04;100.00;102494.75;5077271;28;20028;-80
2021/12/13 07:46:03;;;;;;;23.90;14.43;;;;;;;7.05;100.00;102503.59;5079672;28;20093;-79
2021/12/13 07:48:40;;;;;;;24.33;14.03;;;;;;;7.07;100.00;102501.81;5079436;28;20035;-79
2021/12/13 07:51:18;;;;;;;27.85;16.05;;;;;;;7.07;100.00;102501.81;5077272;28;20381;-79
2021/12/13 07:53:43;;;;;;;26.77;15.63;;;;;;;7.07;100.00;102505.34;5079490;28;20024;-80
2021/12/13 07:56:11;;;;;;;26.92;14.80;;;;;;;7.06;100.00;102506.19;5079176;28;20028;-79
2021/12/13 07:58:39;;;;;;;26.98;15.32;;;;;;;7.08;100.00;102508.84;5080043;28;20027;-79
2021/12/13 08:01:23;;;;;;;26.05;14.75;;;;;;;7.10;100.00;102513.22;5077500;28;20359;-79
2021/12/13 08:04:08;;;;;;;;;;;;;;;7.11;100.00;102517.66;5078543;28;20036;-79
2021/12/13 08:06:39;;;;;;;28.45;15.48;;;;;;;7.11;100.00;102527.38;5075780;28;19927;-79
2021/12/13 08:09:09;;;;;;;25.35;14.77;;;;;;;7.12;100.00;102519.41;5083901;28;20059;-79
2021/12/13 08:11:55;;;;;;;27.40;15.80;;;;;;;7.14;100.00;102524.66;5068377;28;20020;-79
2021/12/13 08:14:28;;;;;;;28.70;16.88;;;;;;;7.15;100.00;102513.22;5086272;28;20024;-79
2021/12/13 08:16:53;;;;;;;25.97;15.47;;;;;;;7.17;100.00;102516.69;5086163;28;20169;-79
2021/12/13 08:19:24;;;;;;;23.75;15.05;;;;;;;7.14;100.00;102508.78;5083402;28;20806;-79
2021/12/13 08:21:59;;;;;;;21.67;14.05;;;;;;;7.18;100.00;102521.09;5084079;28;20039;-79
2021/12/13 08:24:30;;;;;;;27.15;15.20;;;;;;;7.18;100.00;102524.63;5076299;28;20016;-79
2021/12/13 08:27:01;;;;;;;23.05;14.13;;;;;;;7.16;100.00;102522.91;5084310;28;20302;-79
2021/12/13 08:29:32;;;;;;;26.90;15.20;;;;;;;7.18;100.00;102516.69;5086269;28;20121;-79
2021/12/13 08:32:05;;;;;;;27.63;15.05;;;;;;;7.20;100.00;102519.31;5074728;28;20464;-79
2021/12/13 08:34:53;;;;;;;30.13;15.57;;;;;;;7.20;100.00;102521.97;5068525;28;20024;-79
2021/12/13 08:37:27;;;;;;;23.33;13.57;;;;;;;7.21;100.00;102518.44;5071593;28;20483;-79
2021/12/13 08:40:20;;;;;;;21.65;13.57;;;;;;;7.13;100.00;102507.91;5067646;28;20021;-79
2021/12/13 08:42:48;;;;;;;22.10;13.25;;;;;;;7.14;100.00;102516.72;5067328;28;20103;-79
2021/12/13 08:45:24;;;;;;;22.38;12.73;;;;;;;7.18;100.00;102521.97;5076285;28;20032;-79
2021/12/13 08:47:54;;;;;;;19.88;11.63;;;;;;;7.18;100.00;102521.97;5082551;28;20481;-78
2021/12/13 08:50:28;;;;;;;21.10;12.30;;;;;;;7.19;100.00;102526.41;5077904;28;20020;-79
2021/12/13 08:52:58;;;;;;;23.15;13.70;;;;;;;7.18;100.00;102521.97;5072258;28;20021;-79
2021/12/13 08:55:37;;;;;;;23.60;13.38;;;;;;;7.17;100.00;102522.00;5076660;28;20031;-79
2021/12/13 08:58:12;;;;;;;20.30;12.15;;;;;;;7.19;100.00;102529.03;5073784;28;20431;-79
2021/12/13 09:00:50;;;;;;;20.45;12.50;;;;;;;7.20;100.00;102527.28;5081953;28;20032;-79
2021/12/13 09:03:32;;;;;;;19.02;12.00;;;;;;;7.20;100.00;102522.84;5082961;28;20065;-78
2021/12/13 09:06:16;;;;;;;17.05;11.30;;;;;;;7.20;100.00;102525.50;5071203;28;20033;-79
2021/12/13 09:08:46;;;;;;;19.05;11.77;;;;;;;7.22;100.00;102525.47;5084415;28;20036;-79
2021/12/13 09:11:39;;;;;;;21.40;12.27;;;;;;;7.22;100.00;102521.06;5074510;28;20106;-79
2021/12/13 09:14:36;;;;;;;19.13;11.38;;;;;;;7.23;100.00;102519.28;5067801;28;20032;-79
2021/12/13 09:17:23;;;;;;;19.65;11.35;;;;;;;7.27;100.00;102517.47;5076437;28;20031;-79
2021/12/13 09:19:49;;;;;;;18.15;11.15;;;;;;;7.26;100.00;102516.59;5066587;28;20072;-79
2021/12/13 09:22:37;;;;;;;17.23;11.18;;;;;;;7.25;100.00;102525.44;5074554;28;20911;-79
2021/12/13 09:25:14;;;;;;;16.58;10.90;;;;;;;7.27;100.00;102536.88;5092720;28;20106;-79
2021/12/13 09:27:52;;;;;;;16.35;10.52;;;;;;;7.29;100.00;102536.91;5082873;28;20486;-79
2021/12/13 09:30:26;;;;;;;17.40;10.52;;;;;;;7.28;100.00;102536.03;5070015;28;20102;-79
2021/12/13 09:33:02;;;;;;;14.63;10.05;;;;;;;7.24;100.00;102534.28;5087650;28;20112;-80
2021/12/13 09:35:36;;;;;;;16.02;10.07;;;;;;;7.27;100.00;102536.88;5086824;28;20107;-80
2021/12/13 09:38:19;;;;;;;;;;;;;;;7.32;100.00;102544.81;5087985;28;20051;-79
2021/12/13 09:41:12;;;;;;;13.88;9.43;;;;;;;7.27;100.00;102547.47;5085080;28;19917;-81
2021/12/13 09:43:56;;;;;;;17.38;10.20;;;;;;;7.23;100.00;102556.34;5082450;28;20425;-79
2021/12/13 09:46:41;;;;;;;14.25;9.48;;;;;;;7.26;100.00;102558.97;5082206;28;20398;-79
2021/12/13 09:49:14;;;;;;;16.23;10.80;;;;;;;7.22;100.00;102565.19;5073379;28;20036;-79
2021/12/13 09:51:51;;;;;;;19.70;10.15;;;;;;;7.22;100.00;102570.50;5082619;28;20020;-79
2021/12/13 09:54:20;;;;;;;14.85;9.65;;;;;;;7.23;100.00;102577.53;5083011;28;20207;-79
2021/12/13 09:56:49;;;;;;;13.48;9.25;;;;;;;7.30;100.00;102588.97;5077877;28;20024;-79
2021/12/13 09:59:27;;;;;;;15.10;8.65;;;;;;;7.27;100.00;102584.56;5087726;28;20085;-79
2021/12/13 10:01:57;;;;;;;17.50;9.07;;;;;;;7.28;100.00;102598.72;5088760;28;20036;-79
2021/12/13 10:04:34;;;;;;;13.55;9.27;;;;;;;7.30;100.00;102599.56;5090863;28;20027;-79
2021/12/13 10:07:05;;;;;;;14.80;8.90;;;;;;;7.34;100.00;102590.69;5083581;28;20039;-79
2021/12/13 10:09:39;;;;;;;13.63;8.70;;;;;;;7.36;100.00;102594.22;5082618;28;20027;-79
2021/12/13 10:12:35;;;;;;;13.93;9.52;;;;;;;7.40;100.00;102594.19;5069974;28;20024;-79
2021/12/13 10:15:09;;;;;;;11.45;8.40;;;;;;;7.39;100.00;102591.53;5088479;28;20032;-80
2021/12/13 10:17:39;;;;;;;11.75;7.85;;;;;;;7.43;100.00;102588.81;5089180;28;20020;-79
2021/12/13 10:20:11;;;;;;;13.35;8.18;;;;;;;7.44;100.00;102582.66;5088723;28;20051;-79
2021/12/13 10:22:37;;;;;;;12.65;8.40;;;;;;;7.45;100.00;102583.53;5075060;28;20028;-79
2021/12/13 10:25:11;;;;;;;15.73;9.68;;;;;;;7.46;100.00;102585.28;5078195;28;20534;-79
2021/12/13 10:27:37;;;;;;;14.25;8.52;;;;;;;7.45;100.00;102579.09;5086753;28;20032;-79
2021/12/13 10:30:14;;;;;;;13.77;8.43;;;;;;;7.45;100.00;102578.22;5089416;28;20024;-79
2021/12/13 10:32:41;;;;;;;13.70;7.78;;;;;;;7.47;100.00;102582.59;5096192;28;20141;-80
2021/12/13 10:35:21;;;;;;;8.68;6.97;;;;;;;7.48;100.00;102580.81;5089815;28;20028;-80
2021/12/13 10:38:09;;;;;;;11.90;8.13;;;;;;;7.49;100.00;102575.53;5087441;28;20044;-79
2021/12/13 10:40:39;;;;;;;11.88;8.23;;;;;;;7.47;100.00;102576.44;5070980;28;20434;-79
2021/12/13 10:43:11;;;;;;;13.23;7.60;;;;;;;7.51;100.00;102577.28;5068802;28;20055;-80
2021/12/13 10:45:52;;;;;;;10.10;7.47;;;;;;;7.53;100.00;102572.88;5071281;28;20415;-80
2021/12/13 10:48:18;;;;;;;12.00;7.70;;;;;;;7.48;100.00;102571.13;5082721;28;20158;-80
2021/12/13 10:50:49;;;;;;;11.38;7.57;;;;;;;7.56;100.00;102573.69;5084084;28;20446;-79
2021/12/13 10:53:18;;;;;;;11.63;7.72;;;;;;;7.59;100.00;102563.06;5076513;28;20499;-79
2021/12/13 10:55:51;;;;;;;9.25;7.13;;;;;;;7.62;100.00;102564.81;5087652;28;20377;-80
2021/12/13 10:58:27;;;;;;;10.15;6.88;;;;;;;7.59;100.00;102556.88;5076176;28;20024;-79
2021/12/13 11:00:57;;;;;;;8.77;6.50;;;;;;;7.69;100.00;102574.41;5084577;28;20037;-80
2021/12/13 11:03:27;;;;;;;8.45;6.30;;;;;;;7.71;100.00;102576.16;5073733;28;20061;-80
2021/12/13 11:05:55;;;;;;;8.93;5.78;;;;;;;7.72;100.00;102577.03;5074064;28;20031;-80
2021/12/13 11:08:23;;;;;;;9.80;5.90;;;;;;;7.74;100.00;102577.91;5086654;28;20549;-79
2021/12/13 11:10:54;;;;;;;9.70;6.47;;;;;;;7.74;100.00;102568.19;5084997;28;20031;-80
2021/12/13 11:13:25;;;;;;;8.15;5.53;;;;;;;7.78;100.00;102570.81;5089421;28;20025;-79
2021/12/13 11:15:55;;;;;;;6.75;5.68;;;;;;;7.79;100.00;102556.66;5087700;28;20020;-79
2021/12/13 11:18:28;;;;;;;8.82;6.22;;;;;;;7.80;100.00;102558.41;5089459;28;20811;-80
2021/12/13 11:21:00;;;;;;;7.20;5.47;;;;;;;7.80;100.00;102555.75;5074745;28;20033;-80
2021/12/13 11:23:26;;;;;;;9.77;5.65;;;;;;;7.81;100.00;102560.16;5086197;28;20040;-79
2021/12/13 11:25:56;;;;;;;7.65;5.32;;;;;;;7.82;100.00;102553.97;5086809;28;20044;-79
2021/12/13 11:28:22;;;;;;;7.63;5.70;;;;;;;7.80;100.00;102546.03;5073298;28;20422;-79
2021/12/13 11:30:49;;;;;;;6.38;5.20;;;;;;;7.83;100.00;102553.06;5072858;28;20504;-79
2021/12/13 11:33:22;;;;;;;6.72;5.45;;;;;;;7.84;100.00;102555.69;5073749;28;20536;-79
2021/12/13 11:36:22;;;;;;;6.22;4.90;;;;;;;7.86;100.00;102556.56;5082849;28;20024;-79
2021/12/13 11:39:10;;;;;;;7.57;5.57;;;;;;;7.88;100.00;102557.41;5075184;28;20032;-79
2021/12/13 11:42:12;;;;;;;8.95;5.82;;;;;;;7.91;100.00;102561.81;5079810;28;20406;-80
2021/12/13 11:45:09;;;;;;;7.10;5.32;;;;;;;7.94;100.00;102545.84;5068700;28;20036;-80
2021/12/13 11:47:59;;;;;;;9.52;5.18;;;;;;;7.93;99.69;102547.63;5084451;28;20028;-79
2021/12/13 11:50:59;;;;;;;6.65;4.82;;;;;;;7.95;99.90;102542.31;5076998;28;20047;-79
2021/12/13 11:53:45;;;;;;;8.30;5.10;;;;;;;7.99;99.98;102549.34;5087765;28;20469;-79
2021/12/13 11:56:39;;;;;;;8.13;4.80;;;;;;;7.98;99.39;102544.91;5087145;28;20070;-79
2021/12/13 11:59:19;;;;;;;6.43;5.10;;;;;;;7.97;98.98;102543.16;5088380;28;20040;-79